< Typhoon 197715 1977 Season Typhoon 197717 >
Typhoon 197716 (HARRIET)
General InformationTrack Information on Google MapsDetailed Wind Information || Disaster Info.ResourceGoogle EarthGE AnimationAtom FeedGeoJSON
Detalied Best Track (Time Zone = UTC)
Year Month Day Hour Lat. Long. Pressure (hPa) Wind (kt) Class Image Chart
1977 10 14 06 10.0 145.0 1004 0 2 -- Chart
1977 10 14 12 10.4 144.4 1004 0 2 -- Chart
1977 10 14 18 11.0 143.9 1004 0 2 -- Chart
1977 10 15 00 12.0 143.0 1004 0 2 -- Chart
1977 10 15 06 13.2 141.6 1002 0 2 -- Chart
1977 10 15 12 14.0 140.0 1002 0 2 -- Chart
1977 10 15 18 14.7 138.3 1002 0 2 -- Chart
1977 10 16 00 15.3 137.0 1000 0 2 -- Chart
1977 10 16 06 15.7 135.3 998 0 2 -- Chart
1977 10 16 12 15.8 134.3 998 0 2 -- Chart
1977 10 16 18 16.3 133.2 998 0 2 -- Chart
1977 10 17 00 17.0 132.5 990 35 3 -- Chart
1977 10 17 06 17.9 132.1 985 45 3 -- Chart
1977 10 17 12 17.4 131.4 985 45 3 -- Chart
1977 10 17 18 18.0 132.3 985 45 3 -- Chart
1977 10 18 00 19.0 132.6 985 50 4 -- Chart
1977 10 18 06 20.5 132.6 980 55 4 -- Chart
1977 10 18 12 21.8 133.2 980 55 4 -- Chart
1977 10 18 18 23.4 133.7 980 50 4 -- Chart
1977 10 19 00 25.2 134.8 985 50 4 -- Chart
1977 10 19 06 26.8 136.2 985 50 4 -- Chart
1977 10 19 12 27.8 137.3 985 50 4 -- Chart
1977 10 19 18 28.8 138.6 985 50 4 -- Chart
1977 10 20 00 29.3 139.7 990 50 4 -- Chart
1977 10 20 06 30.3 141.6 990 50 4 -- Chart
1977 10 20 12 31.0 144.0 996 0 6 -- Chart
1977 10 20 18 33.0 148.0 998 0 6 -- Chart
1977 10 21 00 35.0 152.0 1000 0 6 -- Chart
1977 10 21 06 36.0 156.0 1000 0 6 -- Chart
1977 10 21 12 38.0 161.0 1000 0 6 -- Chart
1977 10 21 18 39.0 167.0 1000 0 6 -- Chart
1977 10 22 00 40.0 172.9 1000 0 6 -- Chart
1977 10 22 06 41.4 177.0 996 0 6 -- Chart
Japan Meteorological Agency Best Track Data | Correction Date : 1992-10-21
< Typhoon 197715 1977 Season Typhoon 197717 >

Help